Weather Forecast for Al Ain Airport  
Wednesday, December 13, 2017 (12:56 UTC)
Al Ain International Airport
ICAO Code: OMAL
IATA Code: AAN
  • METAR OMAL 131200Z VRB04KT 9999 FEW046 26/07 Q1016 BECMG 30005KT=
  • TAF OMAL 131100Z 1312/1418 12005KT 8000 FEW035 BECMG 1312/1314 30005KT BECMG 1316/1318 09005KT BECMG 1404/1406 17011KT BECMG 1411/1413 VRB02KT=
AL AIN (OMAL) 5 DAY OUTLOOK:
Wednesday, 13/Dec/2017
HIGH:
24°C
LOW:
13°C
MIN. VISIBILITY:
7000 meters
WIND (DIRECTION/SPEED):
Light and variable wind becoming NE at 7 - 10 knots (13 - 19 km/h)
WEATHER:
Partly Cloudy
RAINFALL:
Nil
Thursday, 14/Dec/2017
HIGH:
25°C
LOW:
17°C
MIN. VISIBILITY:
7000 meters
WIND (DIRECTION/SPEED):
SSE at 10 - 15 knots (19 - 28 km/h) becoming SE at 10 - 15 knots (19 - 28 km/h)
WEATHER:
Partly Cloudy
RAINFALL:
Nil
Friday, 15/Dec/2017
HIGH:
26°C
LOW:
17°C
MIN. VISIBILITY:
6000 meters
WIND (DIRECTION/SPEED):
SE at 10 - 15 knots (19 - 28 km/h) becoming ESE at 10 - 15 knots (19 - 28 km/h)
WEATHER:
Partly Cloudy
RAINFALL:
Nil
Saturday, 16/Dec/2017
HIGH:
25°C
LOW:
17°C
MIN. VISIBILITY:
5000 meters
WIND (DIRECTION/SPEED):
S at 10 - 15 knots (19 - 28 km/h) becoming NE at 10 - 15 knots (19 - 28 km/h)
WEATHER:
Partly cloudy with a chance for isolated light showers.
RAINFALL:
10% chance.
Sunday, 17/Dec/2017
HIGH:
24°C
LOW:
17°C
MIN. VISIBILITY:
4000 meters
WIND (DIRECTION/SPEED):
SE at 5 - 7 knots (9 - 13 km/h) becoming NW at 10 - 15 knots (19 - 28 km/h)
WEATHER:
Cloudy with thundershowers.
RAINFALL:
40% chance.